My Meet Scores
Eva Yentsch, Crystal Lake Gymnastics - MyMeetScores.com
Top100 | Top Teams | Upcoming Meets | Completed Meets | Latest | Add Scores | Help| Support | Bookmark and Share

Eva Yentsch, Crystal Lake Gymnastics
Personal Bests
LevelVault BarsBeamFloorAA
39.5259.225 9.0259.15036.400
48.8008.025 9.1259.05034.650
58.7257.700 8.5008.30033.225
69.0007.650 9.3509.22534.500
Meet Scores
Date Meet Team Session Level Division Vault Bars Beam Floor AA
2021-04-15 Illinois level 6 & Xcel Silver State Champion Crystal Lake Gymnastics Training Center 10 6 Sr E 8.600 26T 7.100 32 8.900 20 9.225 28 33.825 32
2021-03-05 NGC Flip'r S.O.U.L. Invitational Crystal Lake Gymnastics 02 6 SR 8.775 11 7.300 11 9.000 3T 9.125 5 34.200 11
2021-02-19 BIG Classic 2021 Crystal Lake Gymnastics 1B 6 Junior C 8.700 7T 7.225 13 9.350 1 9.100 5T 34.375 6
2021-02-11 SCGA Classic 2021 Crystal Lake Gymnastics Training Center 1 6 Sr D 9.000 3 6.900 7 8.950 1 9.025 6 33.875 5
2021-02-11 SCGA Classic 2021 Crystal Lake Gymnastics Training Center 6 6 Sr D 9.000 3 6.900 5 15.900 4
2021-02-11 SCGA Classic 2021 Crystal Lake Gymnastics Training Center 0 6 Sr D 0.000 2*
2021-01-15 Leenda's Island Adventure Crystal Lake Gymnastics A08 6 Sr B 8.150 7 7.000 10 9.050 3 9.025 6T 33.225 10
2020-12-17 St Nick II Optional Crystal Lake Gymnastics 1 6 SrA 8.750 10 6.700 15 9.250 2 9.100 7T 33.800 13
2020-02-28 City of Lights Crystal Lake Gymnastics A07 6 Older 8.725 7 7.450 9 8.425 7 8.375 8 32.975 8
2020-02-21 Kinetic Classic Crystal Lake Gymnastics 01 6 Older 8.650 43T 7.650 46 9.050 33T 9.150 36* 34.500 44T
2020-01-18 2020 Crystal Classic Crystal Lake Gymnastics 4 6 Sr 0.000 5 7.450 5 0.000 5 0.000 5 7.450 5
2019-12-20 2019 Women's Hawaiian Pineapple Classic Crystal Lake Gymnastics 3A 6 Ages 14+ 0.000 8*
2019-11-08 Illinois Judges Cup Crystal Lake Gymnastics P4 5 All Ages 8.725 25 7.700 41 8.500 29T 8.300 37 33.225 37T
2019-03-22 Illinois Gymnastics State Championships Crystal Lake Gymnastics 10 4 Sr F 8.575 20 7.750 23T 8.850 12T 8.850 18 34.025 21
2019-02-22 Great Western Invitational - Women's Crystal Lake Gymnastics 09 4 Pony 8.450 8 8.025 16T 9.125 12T 9.050 10 34.650 9
2019-02-01 Wisconsin Dells Gymnastics Vacation Classic Crystal Lake Gymnastics B7 4 Senior 8.650 7T 6.875 14 8.750 6 8.950 5T 33.225 10
2019-01-11 St Jude Benefit Meet Crystal Lake Gymnastics 5A 4 Sr B 8.800 13 6.800 17 8.550 14 9.025 8 33.175 16
2018-12-14 Hawaiian Pineapple Classic Crystal Lake Gymnastics 1B 4 Ages12+ 8.200 8 7.350 8 8.400 7T 8.525 5 32.475 7
2018-12-07 St. Nick Invite 2018 Crystal Lake Gymnastics 6A 4 SrB 8.300 17T 8.000 10 8.750 8 8.625 10 33.675 11
2018-05-03 Illinois USA Gymnastics Level 3 State Championships Crystal Lake Gymnastics 6 3 Sr F 9.525 8 8.800 20T 9.025 14T 9.050 19 36.400 15
2018-03-02 2018 Flip'r Invitational Crystal Lake Gymnastics 7 3 Sr Age 10 & up 9.000 17 8.775 18 9.025 7 9.150 8 35.950 15
2018-02-08 Hal's Harley-Davidson Invite Womens Crystal Lake Gymnastics T06 3 10 up 8.875 9 9.225 7 8.750 4T 8.275 12 35.125 6
2017-12-08 St. Nick Invite Crystal Lake Gymnastics 5A 3 SrA 8.975 11 8.350 12 8.400 11 8.325 13 34.050 13
2017-11-10 Illinois NAWGJ Judges Cup 2017 Crystal Lake Gymnastics G6 3 All Ages 9.300 7T 8.200 19 8.900 5 8.150 31 34.550 18T
Get your scores on
a t-shirt, pin, or hoodie